Time;durP1;ratioP1;P1;durP2;ratioP2;P2;SDS_P1;SDS_P2;PMS_P1;PMS_P2;Temp;Humidity;BMP_temperature;BMP_pressure;BME280_temperature;BME280_humidity;BME280_pressure;Samples;Min_cycle;Max_cycle;Signal;HPM_P1;HPM_P2
2021/12/18 00:00:50;;;;;;;0.35;0.32;;;8.00;99.90;;;;;;5055454;28;20123;-82
2021/12/18 00:03:17;;;;;;;0.00;0.00;;;8.00;99.90;;;;;;5071816;28;20045;-82
2021/12/18 00:05:43;;;;;;;0.00;0.00;;;8.00;99.90;;;;;;5055424;28;20048;-82
2021/12/18 00:08:10;;;;;;;0.00;0.00;;;8.10;99.90;;;;;;5055056;28;20060;-82
2021/12/18 00:10:38;;;;;;;0.00;0.00;;;7.90;99.90;;;;;;5074918;28;20048;-82
2021/12/18 00:13:04;;;;;;;1.10;0.52;;;7.80;99.90;;;;;;5075761;28;20091;-82
2021/12/18 00:15:30;;;;;;;0.00;0.00;;;7.90;99.90;;;;;;5076065;28;20419;-82
2021/12/18 00:17:59;;;;;;;1.75;0.00;;;8.10;99.90;;;;;;5059223;28;20091;-82
2021/12/18 00:20:26;;;;;;;0.00;0.00;;;7.90;99.90;;;;;;5075601;28;20055;-82
2021/12/18 00:22:52;;;;;;;0.00;0.00;;;7.90;99.90;;;;;;5075577;28;20093;-82
2021/12/18 00:25:18;;;;;;;0.00;0.00;;;7.90;99.90;;;;;;5058451;28;20045;-82
2021/12/18 00:27:43;;;;;;;0.00;0.00;;;7.90;99.90;;;;;;5058860;28;20055;-82
2021/12/18 00:30:09;;;;;;;0.00;0.00;;;7.90;99.90;;;;;;5058649;28;20040;-82
2021/12/18 00:32:36;;;;;;;0.20;0.10;;;7.90;99.90;;;;;;5075544;28;20070;-82
2021/12/18 00:35:02;;;;;;;0.00;0.00;;;7.90;99.90;;;;;;5058715;28;20099;-82
2021/12/18 00:37:28;;;;;;;0.00;0.00;;;7.80;99.90;;;;;;5058662;28;20088;-82
2021/12/18 00:39:59;;;;;;;0.00;0.00;;;7.80;99.90;;;;;;5075376;28;20554;-82
2021/12/18 00:44:51;;;;;;;0.00;0.00;;;7.80;99.90;;;;;;5075504;28;20139;-82
2021/12/18 00:47:17;;;;;;;0.00;0.00;;;7.70;99.90;;;;;;5075384;28;20526;-82
2021/12/18 00:49:43;;;;;;;0.00;0.00;;;7.70;99.90;;;;;;5075326;28;20049;-82
2021/12/18 00:52:09;;;;;;;0.00;0.00;;;7.70;99.90;;;;;;5058408;28;20869;-82
2021/12/18 00:54:35;;;;;;;0.28;0.00;;;7.80;99.90;;;;;;5059575;28;20036;-82
2021/12/18 00:57:02;;;;;;;0.00;0.00;;;7.70;99.90;;;;;;5075524;28;20135;-82
2021/12/18 00:59:28;;;;;;;0.00;0.00;;;7.70;99.90;;;;;;5058848;28;20054;-82
2021/12/18 01:01:54;;;;;;;0.00;0.00;;;7.80;99.90;;;;;;5075516;28;20048;-82
2021/12/18 01:04:20;;;;;;;0.00;0.00;;;7.70;99.90;;;;;;5075991;28;20040;-82
2021/12/18 01:06:46;;;;;;;0.00;0.00;;;7.60;99.90;;;;;;5058267;28;20087;-83
2021/12/18 01:09:13;;;;;;;0.00;0.00;;;7.70;99.90;;;;;;5058511;28;20079;-83
2021/12/18 01:11:44;;;;;;;0.00;0.00;;;7.60;99.90;;;;;;5075417;28;20507;-82
2021/12/18 01:22:38;;;;;;;0.00;0.00;;;7.70;99.90;;;;;;5074519;28;20044;-82
2021/12/18 01:25:07;;;;;;;0.32;0.32;;;7.60;99.90;;;;;;5074191;28;20140;-82
2021/12/18 01:27:34;;;;;;;0.00;0.00;;;7.70;99.90;;;;;;5057534;28;20044;-82
2021/12/18 01:30:00;;;;;;;0.00;0.00;;;7.60;99.90;;;;;;5074377;28;20435;-82
2021/12/18 01:32:28;;;;;;;0.10;0.03;;;7.50;99.90;;;;;;5057241;28;20060;-82
2021/12/18 01:34:53;;;;;;;0.00;0.00;;;7.60;99.90;;;;;;5057551;28;20041;-82
2021/12/18 01:37:20;;;;;;;0.00;0.00;;;7.60;99.90;;;;;;5074391;28;20426;-82
2021/12/18 01:39:46;;;;;;;0.00;0.00;;;7.60;99.90;;;;;;5073662;28;20515;-83
2021/12/18 01:52:53;;;;;;;0.00;0.00;;;7.40;99.90;;;;;;5073698;28;20088;-82
2021/12/18 01:55:29;;;;;;;0.00;0.00;;;7.40;99.90;;;;;;5057278;28;20045;-83
2021/12/18 01:57:56;;;;;;;0.80;0.13;;;7.50;99.90;;;;;;5057066;28;20051;-82
2021/12/18 02:00:25;;;;;;;0.00;0.00;;;7.40;99.90;;;;;;5056821;28;20053;-82
2021/12/18 02:02:51;;;;;;;0.00;0.00;;;7.40;99.90;;;;;;5057050;28;20048;-83
2021/12/18 02:05:16;;;;;;;0.00;0.00;;;7.40;99.90;;;;;;5073390;28;20067;-83
2021/12/18 02:07:42;;;;;;;0.00;0.00;;;7.40;99.90;;;;;;5056769;28;20051;-82
2021/12/18 02:10:16;;;;;;;0.00;0.00;;;7.50;99.90;;;;;;5056624;28;20052;-82
2021/12/18 02:12:51;;;;;;;0.00;0.00;;;7.30;99.90;;;;;;5056929;28;20436;-82
2021/12/18 02:20:50;;;;;;;0.00;0.00;;;7.30;99.90;;;;;;5073326;28;20515;-82
2021/12/18 02:23:17;;;;;;;0.00;0.00;;;7.40;99.90;;;;;;5056488;28;20055;-82
2021/12/18 02:25:47;;;;;;;0.00;0.00;;;7.40;99.90;;;;;;5057123;28;20090;-83
2021/12/18 02:28:18;;;;;;;0.00;0.00;;;7.40;99.90;;;;;;5057465;28;20040;-82
2021/12/18 02:30:45;;;;;;;0.00;0.00;;;7.40;99.90;;;;;;5057058;28;20495;-82
2021/12/18 02:33:11;;;;;;;0.17;0.00;;;7.40;99.90;;;;;;5056384;28;20049;-82
2021/12/18 02:35:45;;;;;;;0.00;0.00;;;7.40;99.90;;;;;;5056411;28;20084;-82
2021/12/18 02:38:46;;;;;;;0.00;0.00;;;7.40;99.90;;;;;;5056308;28;20045;-83
2021/12/18 02:41:56;;;;;;;0.00;0.00;;;7.40;99.90;;;;;;5056442;28;20135;-82
2021/12/18 02:44:08;;;;;;;1.45;0.10;;;7.50;99.90;;;;;;5070582;28;20048;-82
2021/12/18 02:46:34;;;;;;;0.00;0.00;;;7.30;99.90;;;;;;5055721;28;20082;-83
2021/12/18 02:49:11;;;;;;;0.00;0.00;;;7.30;99.90;;;;;;5056185;28;20127;-82
2021/12/18 02:51:37;;;;;;;0.00;0.00;;;7.30;99.90;;;;;;5056492;28;20059;-82
2021/12/18 02:54:03;;;;;;;1.55;0.32;;;7.30;99.90;;;;;;5056131;28;20484;-82
2021/12/18 02:56:29;;;;;;;0.00;0.00;;;7.30;99.90;;;;;;5056149;28;20040;-82
2021/12/18 02:59:06;;;;;;;0.00;0.00;;;7.30;99.90;;;;;;5055811;28;20055;-83
2021/12/18 03:01:33;;;;;;;0.00;0.00;;;7.20;99.90;;;;;;5056107;28;20097;-82
2021/12/18 03:04:01;;;;;;;0.00;0.00;;;7.20;99.90;;;;;;5056456;28;20040;-82
2021/12/18 03:09:26;;;;;;;0.00;0.00;;;7.20;99.90;;;;;;5073254;28;20048;-83
2021/12/18 03:27:45;;;;;;;0.00;0.00;;;7.00;99.90;;;;;;5073407;28;20051;-82
2021/12/18 03:30:11;;;;;;;0.00;0.00;;;7.00;99.90;;;;;;5072830;28;20044;-83
2021/12/18 03:32:37;;;;;;;0.00;0.00;;;7.00;99.90;;;;;;5056621;28;20067;-83
2021/12/18 03:35:04;;;;;;;0.00;0.00;;;7.00;99.90;;;;;;5056517;28;20041;-83
2021/12/18 03:37:30;;;;;;;0.00;0.00;;;7.00;99.90;;;;;;5073714;28;20044;-82
2021/12/18 03:39:55;;;;;;;0.00;0.00;;;7.20;99.90;;;;;;5072758;28;20458;-83
2021/12/18 03:42:21;;;;;;;0.00;0.00;;;7.00;99.90;;;;;;5072909;28;20136;-82
2021/12/18 03:44:48;;;;;;;0.00;0.00;;;7.00;99.90;;;;;;5074273;28;20135;-82
2021/12/18 03:47:14;;;;;;;0.00;0.00;;;7.00;99.90;;;;;;5076976;28;20118;-82
2021/12/18 03:49:40;;;;;;;0.00;0.00;;;7.00;99.90;;;;;;5076540;28;20368;-82
2021/12/18 03:52:06;;;;;;;0.00;0.00;;;7.00;99.90;;;;;;5059600;28;20082;-83
2021/12/18 03:54:31;;;;;;;0.00;0.00;;;7.00;99.90;;;;;;5076111;28;20048;-82
2021/12/18 03:56:57;;;;;;;1.20;0.30;;;7.00;99.90;;;;;;5076046;28;20121;-83
2021/12/18 03:59:23;;;;;;;0.05;0.05;;;7.00;99.90;;;;;;5059171;28;20044;-83
2021/12/18 04:01:49;;;;;;;0.00;0.00;;;7.00;99.90;;;;;;5076598;28;20048;-82
2021/12/18 04:04:15;;;;;;;0.20;0.00;;;7.00;99.90;;;;;;5076077;28;20052;-82
2021/12/18 04:06:42;;;;;;;0.00;0.00;;;7.10;99.90;;;;;;5059295;28;20391;-82
2021/12/18 04:09:11;;;;;;;0.00;0.00;;;6.90;99.90;;;;;;5075447;28;20475;-82
2021/12/18 04:11:37;;;;;;;0.00;0.00;;;6.90;99.90;;;;;;5059070;28;20114;-82
2021/12/18 04:14:04;;;;;;;0.00;0.00;;;6.90;99.90;;;;;;5075697;28;20059;-83
2021/12/18 04:16:30;;;;;;;0.13;0.10;;;6.90;99.90;;;;;;5059184;28;20147;-82
2021/12/18 04:18:55;;;;;;;0.00;0.00;;;6.70;99.90;;;;;;5075508;28;20048;-82
2021/12/18 04:21:21;;;;;;;0.00;0.00;;;6.70;99.90;;;;;;5059005;28;20048;-82
2021/12/18 04:23:47;;;;;;;0.32;0.32;;;6.70;99.90;;;;;;5076108;28;20037;-82
2021/12/18 04:26:12;;;;;;;0.00;0.00;;;6.70;99.90;;;;;;5059241;28;20052;-82
2021/12/18 04:28:38;;;;;;;0.00;0.00;;;6.70;99.90;;;;;;5058717;28;20201;-82
2021/12/18 04:31:04;;;;;;;0.00;0.00;;;6.70;99.90;;;;;;5059171;28;20048;-82
2021/12/18 04:33:29;;;;;;;0.00;0.00;;;6.70;99.90;;;;;;5058835;28;20376;-82
2021/12/18 04:35:55;;;;;;;0.00;0.00;;;6.70;99.90;;;;;;5075157;28;20056;-82
2021/12/18 04:38:21;;;;;;;0.40;0.05;;;6.60;99.90;;;;;;5058678;28;20053;-82
2021/12/18 04:40:49;;;;;;;0.52;0.00;;;6.60;99.90;;;;;;5058604;28;20060;-82
2021/12/18 04:43:14;;;;;;;0.00;0.00;;;6.60;99.90;;;;;;5075167;28;20052;-82
2021/12/18 04:45:40;;;;;;;0.00;0.00;;;6.60;99.90;;;;;;5058608;28;20068;-82
2021/12/18 04:48:06;;;;;;;0.00;0.00;;;6.60;99.90;;;;;;5058476;28;20369;-82
2021/12/18 04:50:31;;;;;;;0.00;0.00;;;6.60;99.90;;;;;;5074974;28;20133;-82
2021/12/18 04:52:57;;;;;;;0.00;0.00;;;6.60;99.90;;;;;;5075029;28;20041;-82
2021/12/18 04:55:23;;;;;;;0.00;0.00;;;6.70;99.90;;;;;;5073924;28;20102;-82
2021/12/18 04:57:49;;;;;;;0.00;0.00;;;6.60;99.90;;;;;;5074510;28;20052;-82
2021/12/18 05:00:17;;;;;;;0.00;0.00;;;6.60;99.90;;;;;;5057734;28;20507;-82
2021/12/18 05:02:44;;;;;;;0.00;0.00;;;6.60;99.90;;;;;;5057847;28;20048;-82
2021/12/18 05:05:13;;;;;;;0.00;0.00;;;6.60;99.90;;;;;;5075169;28;20396;-82
2021/12/18 05:07:38;;;;;;;0.00;0.00;;;6.60;99.90;;;;;;5075093;28;20098;-82
2021/12/18 05:10:07;;;;;;;0.00;0.00;;;6.60;99.90;;;;;;5057872;28;20036;-82
2021/12/18 05:12:33;;;;;;;0.00;0.00;;;6.60;99.90;;;;;;5075277;28;20084;-83
2021/12/18 05:14:58;;;;;;;0.00;0.00;;;6.60;99.90;;;;;;5074907;28;20440;-83
2021/12/18 05:17:24;;;;;;;0.00;0.00;;;6.60;99.90;;;;;;5074796;28;20040;-82
2021/12/18 05:19:50;;;;;;;0.00;0.00;;;6.60;99.90;;;;;;5075211;28;20059;-82
2021/12/18 05:22:16;;;;;;;0.00;0.00;;;6.60;99.90;;;;;;5058291;28;20051;-82
2021/12/18 05:24:41;;;;;;;0.00;0.00;;;6.60;99.90;;;;;;5074707;28;20484;-82
2021/12/18 05:27:07;;;;;;;0.00;0.00;;;6.70;99.90;;;;;;5074315;28;20055;-82
2021/12/18 05:29:33;;;;;;;0.00;0.00;;;6.60;99.90;;;;;;5074542;28;20044;-82
2021/12/18 05:31:59;;;;;;;0.00;0.00;;;6.60;99.90;;;;;;5074463;28;20040;-82
2021/12/18 05:34:26;;;;;;;0.00;0.00;;;6.60;99.90;;;;;;5057553;28;20060;-81
2021/12/18 05:39:23;;;;;;;0.00;0.00;;;6.50;99.90;;;;;;5074302;28;20444;-83
2021/12/18 05:41:50;;;;;;;0.00;0.00;;;6.50;99.90;;;;;;5074243;28;20040;-82
2021/12/18 05:44:22;;;;;;;0.00;0.00;;;6.50;99.90;;;;;;5058221;28;20487;-82
2021/12/18 05:46:48;;;;;;;0.00;0.00;;;6.50;99.90;;;;;;5057621;28;20105;-82
2021/12/18 05:49:14;;;;;;;0.00;0.00;;;6.50;99.90;;;;;;5057413;28;20043;-82
2021/12/18 05:51:40;;;;;;;0.00;0.00;;;6.50;99.90;;;;;;5073923;28;20133;-82
2021/12/18 05:54:06;;;;;;;0.00;0.00;;;6.50;99.90;;;;;;5073662;28;20495;-82
2021/12/18 05:56:33;;;;;;;0.30;0.30;;;6.50;99.90;;;;;;5056628;28;20037;-83
2021/12/18 05:58:59;;;;;;;0.00;0.00;;;6.50;99.90;;;;;;5056660;28;20044;-82
2021/12/18 06:01:25;;;;;;;0.00;0.00;;;6.50;99.90;;;;;;5056665;28;20059;-82
2021/12/18 06:03:51;;;;;;;0.00;0.00;;;6.50;99.90;;;;;;5056821;28;20075;-82
2021/12/18 06:06:17;;;;;;;0.00;0.00;;;6.60;99.90;;;;;;5056939;28;20475;-82
2021/12/18 06:08:43;;;;;;;0.00;0.00;;;6.60;99.90;;;;;;5073256;28;20040;-82
2021/12/18 06:11:17;;;;;;;0.00;0.00;;;6.60;99.90;;;;;;5056302;28;20041;-82
2021/12/18 06:13:44;;;;;;;0.00;0.00;;;6.60;99.90;;;;;;5074143;28;20458;-82
2021/12/18 06:16:11;;;;;;;0.00;0.00;;;6.60;99.90;;;;;;5057366;28;20051;-83
2021/12/18 06:18:46;;;;;;;0.00;0.00;;;6.50;99.90;;;;;;5074046;28;20044;-83
2021/12/18 06:21:14;;;;;;;0.00;0.00;;;6.60;99.90;;;;;;5057152;28;20048;-82
2021/12/18 06:23:40;;;;;;;0.00;0.00;;;6.70;99.90;;;;;;5057254;28;20113;-83
2021/12/18 06:26:06;;;;;;;0.00;0.00;;;6.60;99.90;;;;;;5057274;28;20044;-83
2021/12/18 06:28:32;;;;;;;0.00;0.00;;;6.60;99.90;;;;;;5057206;28;20400;-82
2021/12/18 06:30:58;;;;;;;0.00;0.00;;;6.70;99.90;;;;;;5057073;28;20056;-82
2021/12/18 06:33:24;;;;;;;0.00;0.00;;;6.70;99.90;;;;;;5057075;28;20052;-82
2021/12/18 06:35:50;;;;;;;0.00;0.00;;;6.70;99.90;;;;;;5073350;28;20040;-82
2021/12/18 06:38:16;;;;;;;0.00;0.00;;;6.60;99.90;;;;;;5073713;28;20047;-82
2021/12/18 06:40:41;;;;;;;1.25;0.20;;;6.60;99.90;;;;;;5056807;28;20137;-82
2021/12/18 06:43:07;;;;;;;0.00;0.00;;;6.60;99.90;;;;;;5056744;28;20049;-82
2021/12/18 06:45:35;;;;;;;0.00;0.00;;;6.70;99.90;;;;;;5056031;28;20060;-82
2021/12/18 06:48:01;;;;;;;0.00;0.00;;;6.70;99.90;;;;;;5056470;28;20480;-81
2021/12/18 06:50:26;;;;;;;0.00;0.00;;;6.70;99.90;;;;;;5056524;28;20075;-82
2021/12/18 06:52:52;;;;;;;0.00;0.00;;;6.70;99.90;;;;;;5057288;28;20443;-83
2021/12/18 06:55:18;;;;;;;0.00;0.00;;;6.70;99.90;;;;;;5073697;28;20044;-82
2021/12/18 06:57:44;;;;;;;0.00;0.00;;;6.70;99.90;;;;;;5057077;28;20099;-83
2021/12/18 07:00:12;;;;;;;0.00;0.00;;;6.70;99.90;;;;;;5056869;28;20044;-82
2021/12/18 07:02:38;;;;;;;0.00;0.00;;;6.70;99.90;;;;;;5073569;28;20048;-82
2021/12/18 07:05:05;;;;;;;0.10;0.10;;;6.70;99.90;;;;;;5056269;28;20045;-83
2021/12/18 07:07:30;;;;;;;0.00;0.00;;;6.70;99.90;;;;;;5056745;28;20451;-82
2021/12/18 07:09:56;;;;;;;0.00;0.00;;;6.70;99.90;;;;;;5056462;28;20053;-83
2021/12/18 07:12:22;;;;;;;0.00;0.00;;;6.70;99.90;;;;;;5073031;28;20075;-83
2021/12/18 07:14:47;;;;;;;0.00;0.00;;;6.70;99.90;;;;;;5056466;28;20365;-83
2021/12/18 07:17:13;;;;;;;0.00;0.00;;;6.70;99.90;;;;;;5072587;28;20040;-82
2021/12/18 07:19:39;;;;;;;0.00;0.00;;;6.70;99.90;;;;;;5072028;28;20129;-82
2021/12/18 07:22:05;;;;;;;0.00;0.00;;;6.70;99.90;;;;;;5056478;28;20056;-82
2021/12/18 07:24:31;;;;;;;0.35;0.20;;;6.70;99.90;;;;;;5056514;28;20049;-82
2021/12/18 07:26:57;;;;;;;0.00;0.00;;;6.70;99.90;;;;;;5056452;28;20096;-82
2021/12/18 07:29:23;;;;;;;0.00;0.00;;;6.70;99.90;;;;;;5073174;28;20047;-82
2021/12/18 07:31:49;;;;;;;0.00;0.00;;;6.70;99.90;;;;;;5056145;28;20049;-82
2021/12/18 07:34:16;;;;;;;0.00;0.00;;;6.70;99.90;;;;;;5073031;28;20102;-82
2021/12/18 07:36:42;;;;;;;0.00;0.00;;;6.80;99.90;;;;;;5073680;28;20428;-82
2021/12/18 07:39:07;;;;;;;0.00;0.00;;;6.70;99.90;;;;;;5073254;28;20091;-81
2021/12/18 07:41:33;;;;;;;0.43;0.10;;;6.80;99.90;;;;;;5056235;28;20044;-81
2021/12/18 07:43:59;;;;;;;0.00;0.00;;;6.80;99.90;;;;;;5072668;28;20080;-81
2021/12/18 07:46:25;;;;;;;0.00;0.00;;;6.70;99.90;;;;;;5071852;28;20056;-82
2021/12/18 07:48:50;;;;;;;0.00;0.00;;;6.70;99.90;;;;;;5072171;28;20044;-81
2021/12/18 07:51:16;;;;;;;0.00;0.00;;;6.70;99.90;;;;;;5056322;28;20048;-81
2021/12/18 07:53:42;;;;;;;0.00;0.00;;;6.70;99.90;;;;;;5072598;28;20040;-83
2021/12/18 07:56:11;;;;;;;0.00;0.00;;;6.80;99.90;;;;;;5055637;28;20049;-81
2021/12/18 07:58:37;;;;;;;0.00;0.00;;;6.80;99.90;;;;;;5072561;28;20173;-82
2021/12/18 08:01:04;;;;;;;0.00;0.00;;;6.80;99.90;;;;;;5071937;28;20086;-83
2021/12/18 08:03:30;;;;;;;0.00;0.00;;;6.80;99.90;;;;;;5072136;28;20396;-82
2021/12/18 08:05:55;;;;;;;0.25;0.10;;;6.90;99.90;;;;;;5072638;28;20052;-82
2021/12/18 08:08:21;;;;;;;0.00;0.00;;;6.90;99.90;;;;;;5072201;28;20040;-81
2021/12/18 08:10:47;;;;;;;0.10;0.10;;;6.80;99.90;;;;;;5052357;28;20056;-83
2021/12/18 08:13:13;;;;;;;0.00;0.00;;;7.00;99.90;;;;;;5047084;28;20495;-81
2021/12/18 08:15:39;;;;;;;0.00;0.00;;;6.90;99.90;;;;;;5072803;28;20050;-82
2021/12/18 08:18:07;;;;;;;0.00;0.00;;;6.80;99.90;;;;;;5055889;28;20052;-85
2021/12/18 08:20:37;;;;;;;0.15;0.15;;;6.90;99.90;;;;;;5044372;28;20045;-83
2021/12/18 08:23:03;;;;;;;0.10;0.10;;;7.00;99.90;;;;;;5061133;28;20053;-83
2021/12/18 08:25:31;;;;;;;0.00;0.00;;;7.00;99.90;;;;;;5057442;28;20123;-83
2021/12/18 08:27:59;;;;;;;0.13;0.13;;;7.00;99.90;;;;;;5060731;28;20060;-83
2021/12/18 08:30:27;;;;;;;0.00;0.00;;;7.00;99.90;;;;;;5064254;28;20508;-84
2021/12/18 08:32:52;;;;;;;0.00;0.00;;;7.00;99.90;;;;;;5053101;28;20053;-85
2021/12/18 08:35:19;;;;;;;0.00;0.00;;;7.00;99.90;;;;;;5050400;28;20048;-85
2021/12/18 08:37:45;;;;;;;0.00;0.00;;;7.00;99.90;;;;;;5064641;28;20052;-85
2021/12/18 08:40:12;;;;;;;0.00;0.00;;;7.00;99.90;;;;;;5039103;28;20049;-84
2021/12/18 08:42:39;;;;;;;0.22;0.22;;;7.00;99.90;;;;;;5051914;28;20496;-84
2021/12/18 08:45:05;;;;;;;3.03;0.10;;;7.00;99.90;;;;;;5062905;28;20115;-85
2021/12/18 08:47:31;;;;;;;0.00;0.00;;;7.10;99.90;;;;;;5063139;28;20047;-84
2021/12/18 08:49:57;;;;;;;0.00;0.00;;;7.10;99.90;;;;;;5051848;28;20408;-83
2021/12/18 08:52:23;;;;;;;0.00;0.00;;;7.10;99.90;;;;;;5046298;28;20044;-83
2021/12/18 08:54:49;;;;;;;0.00;0.00;;;7.10;99.90;;;;;;5049412;28;20032;-84
2021/12/18 08:57:14;;;;;;;0.10;0.10;;;7.10;99.90;;;;;;5066855;28;20073;-87
2021/12/18 08:59:41;;;;;;;0.00;0.00;;;7.10;99.90;;;;;;5060563;28;20040;-85
2021/12/18 09:02:08;;;;;;;0.00;0.00;;;7.10;99.90;;;;;;5052893;28;20045;-84
2021/12/18 09:04:35;;;;;;;0.00;0.00;;;7.10;99.90;;;;;;5040534;28;20045;-84
2021/12/18 09:07:01;;;;;;;0.00;0.00;;;7.10;99.90;;;;;;5061619;28;20049;-82
2021/12/18 09:09:27;;;;;;;0.00;0.00;;;7.10;99.90;;;;;;5061129;28;20396;-80
2021/12/18 09:11:52;;;;;;;0.00;0.00;;;7.20;99.90;;;;;;5053025;28;20450;-83
2021/12/18 09:14:18;;;;;;;0.28;0.10;;;7.20;99.90;;;;;;5076150;28;20045;-82
2021/12/18 09:16:44;;;;;;;0.00;0.00;;;7.20;99.90;;;;;;5043757;28;20071;-82
2021/12/18 09:19:09;;;;;;;0.00;0.00;;;7.20;99.90;;;;;;5050054;28;20169;-82
2021/12/18 09:21:35;;;;;;;0.00;0.00;;;7.30;99.90;;;;;;5048146;28;20103;-82
2021/12/18 09:24:01;;;;;;;0.00;0.00;;;7.20;99.90;;;;;;5044902;28;20033;-82
2021/12/18 09:26:27;;;;;;;0.25;0.00;;;7.30;99.90;;;;;;5054777;28;20444;-82
2021/12/18 09:28:53;;;;;;;0.10;0.10;;;7.30;99.90;;;;;;5038735;28;20154;-82
2021/12/18 09:31:18;;;;;;;0.00;0.00;;;7.30;99.90;;;;;;5056080;28;20095;-82
2021/12/18 09:33:44;;;;;;;0.00;0.00;;;7.30;99.90;;;;;;5038905;28;20040;-82
2021/12/18 09:36:10;;;;;;;0.00;0.00;;;7.40;99.90;;;;;;5039027;28;20045;-82
2021/12/18 09:38:35;;;;;;;0.00;0.00;;;7.40;99.90;;;;;;5055106;28;20065;-82
2021/12/18 09:41:03;;;;;;;0.10;0.05;;;7.40;99.90;;;;;;5038787;28;20045;-83
2021/12/18 09:43:29;;;;;;;0.00;0.00;;;7.40;99.90;;;;;;5054101;28;20051;-82
2021/12/18 09:46:08;;;;;;;0.00;0.00;;;7.40;99.90;;;;;;5056646;28;20060;-83
2021/12/18 09:48:36;;;;;;;0.00;0.00;;;7.50;99.90;;;;;;5046175;28;20060;-83
2021/12/18 09:51:07;;;;;;;0.00;0.00;;;7.50;99.90;;;;;;5054851;28;20377;-82
2021/12/18 09:53:33;;;;;;;0.00;0.00;;;7.50;99.90;;;;;;5057608;28;20099;-82
2021/12/18 09:55:59;;;;;;;0.00;0.00;;;7.50;99.90;;;;;;5044116;28;20041;-83
2021/12/18 09:58:25;;;;;;;0.00;0.00;;;7.60;99.90;;;;;;5058031;28;20049;-83
2021/12/18 10:00:51;;;;;;;0.00;0.00;;;7.60;99.90;;;;;;5054380;28;20472;-82
2021/12/18 10:03:16;;;;;;;0.00;0.00;;;7.60;99.90;;;;;;5037786;28;20049;-82
2021/12/18 10:05:42;;;;;;;0.00;0.00;;;7.60;99.90;;;;;;5037703;28;20124;-82
2021/12/18 10:08:17;;;;;;;0.75;0.00;;;7.70;99.90;;;;;;5054500;28;20144;-82
2021/12/18 10:11:05;;;;;;;0.00;0.00;;;7.70;99.90;;;;;;5054340;28;20044;-83
2021/12/18 10:13:57;;;;;;;0.00;0.00;;;7.70;99.90;;;;;;5063896;28;20059;-82
2021/12/18 10:16:26;;;;;;;0.00;0.00;;;7.80;99.90;;;;;;5056664;28;20053;-86
2021/12/18 10:18:53;;;;;;;0.00;0.00;;;7.70;99.90;;;;;;5037229;28;20053;-86
2021/12/18 10:21:25;;;;;;;0.00;0.00;;;7.90;99.90;;;;;;5038874;28;20064;-87
2021/12/18 10:23:53;;;;;;;0.00;0.00;;;7.80;99.90;;;;;;5053451;28;20102;-86
2021/12/18 10:26:37;;;;;;;0.00;0.00;;;7.70;99.90;;;;;;5037046;28;20048;-87
2021/12/18 10:29:28;;;;;;;0.00;0.00;;;7.80;99.90;;;;;;5037382;28;20061;-86
2021/12/18 10:31:54;;;;;;;0.00;0.00;;;7.80;99.90;;;;;;5053770;28;20099;-84
2021/12/18 10:34:23;;;;;;;0.00;0.00;;;7.90;99.90;;;;;;5046262;28;20128;-83
2021/12/18 10:37:10;;;;;;;0.03;0.03;;;7.90;99.90;;;;;;5056990;28;20040;-84
2021/12/18 10:39:44;;;;;;;0.00;0.00;;;7.90;99.90;;;;;;5056920;28;20058;-83
2021/12/18 10:42:21;;;;;;;1.35;0.05;;;8.00;99.90;;;;;;5057459;28;20084;-83
2021/12/18 10:45:08;;;;;;;0.00;0.00;;;8.00;99.90;;;;;;5056088;28;20071;-84
2021/12/18 10:47:49;;;;;;;0.20;0.20;;;8.00;99.90;;;;;;5073589;28;20388;-84
2021/12/18 10:50:46;;;;;;;0.00;0.00;;;8.10;99.90;;;;;;5073627;28;20048;-84
2021/12/18 10:53:27;;;;;;;0.00;0.00;;;8.10;99.90;;;;;;5073858;28;20044;-84
2021/12/18 10:56:03;;;;;;;0.00;0.00;;;8.10;99.90;;;;;;5073941;28;20121;-84
2021/12/18 10:58:37;;;;;;;0.00;0.00;;;8.10;99.90;;;;;;5073759;28;20345;-84
2021/12/18 11:01:06;;;;;;;0.00;0.00;;;8.20;99.90;;;;;;5057362;28;20141;-83
2021/12/18 11:03:46;;;;;;;0.00;0.00;;;8.20;99.90;;;;;;5073832;28;20044;-83
2021/12/18 11:06:12;;;;;;;0.00;0.00;;;8.30;99.90;;;;;;5057213;28;20523;-84
2021/12/18 11:09:05;;;;;;;0.10;0.10;;;8.30;99.90;;;;;;5074188;28;20045;-84
2021/12/18 11:14:13;;;;;;;0.00;0.00;;;8.40;99.90;;;;;;5074639;28;20398;-84
2021/12/18 11:16:43;;;;;;;0.03;0.00;;;8.50;99.90;;;;;;5057538;28;20049;-84
2021/12/18 11:19:16;;;;;;;0.00;0.00;;;8.50;99.90;;;;;;5056373;28;20139;-84
2021/12/18 11:21:44;;;;;;;0.00;0.00;;;8.50;99.90;;;;;;5037474;28;20053;-84
2021/12/18 11:24:11;;;;;;;0.00;0.00;;;8.60;99.90;;;;;;5053679;28;20128;-84
2021/12/18 11:26:42;;;;;;;0.00;0.00;;;8.60;99.90;;;;;;5036858;28;20162;-84
2021/12/18 11:29:18;;;;;;;1.13;0.00;;;8.70;99.90;;;;;;5037430;28;20037;-84
2021/12/18 11:31:45;;;;;;;0.00;0.00;;;8.70;99.90;;;;;;5071017;28;20052;-84
2021/12/18 11:34:11;;;;;;;0.00;0.00;;;8.70;99.90;;;;;;5072992;28;20049;-84
2021/12/18 11:36:43;;;;;;;0.28;0.28;;;8.70;99.90;;;;;;5056766;28;20395;-84
2021/12/18 11:39:10;;;;;;;0.03;0.03;;;8.80;99.90;;;;;;5073513;28;20131;-84
2021/12/18 11:41:38;;;;;;;0.00;0.00;;;8.80;99.90;;;;;;5073606;28;20145;-84
2021/12/18 11:44:22;;;;;;;0.00;0.00;;;8.80;99.90;;;;;;5055740;28;20048;-84
2021/12/18 11:46:48;;;;;;;0.00;0.00;;;8.80;99.90;;;;;;5055558;28;20060;-85
2021/12/18 11:49:14;;;;;;;0.00;0.00;;;8.90;99.90;;;;;;5072603;28;20045;-84
2021/12/18 11:51:55;;;;;;;0.00;0.00;;;8.80;99.90;;;;;;5055802;28;20408;-85
2021/12/18 11:54:48;;;;;;;0.30;0.30;;;8.80;99.90;;;;;;5056555;28;20561;-85
2021/12/18 11:57:37;;;;;;;0.00;0.00;;;8.90;99.90;;;;;;5073225;28;20056;-85
2021/12/18 12:00:18;;;;;;;0.45;0.45;;;8.80;99.90;;;;;;5057381;28;20044;-85
2021/12/18 12:02:53;;;;;;;0.00;0.00;;;8.90;99.90;;;;;;5056256;28;20048;-85
2021/12/18 12:05:32;;;;;;;0.00;0.00;;;8.90;99.90;;;;;;5057181;28;20131;-84
2021/12/18 12:08:18;;;;;;;0.00;0.00;;;8.90;99.90;;;;;;5060261;28;20135;-85
2021/12/18 12:11:17;;;;;;;0.00;0.00;;;9.00;99.90;;;;;;5060065;28;20396;-85
2021/12/18 12:14:01;;;;;;;0.00;0.00;;;8.90;99.90;;;;;;5022513;28;20053;-85
2021/12/18 12:16:45;;;;;;;0.00;0.00;;;8.90;99.90;;;;;;5038722;28;20045;-86
2021/12/18 12:19:13;;;;;;;0.00;0.00;;;8.90;99.90;;;;;;5038560;28;20061;-86
2021/12/18 12:21:40;;;;;;;0.00;0.00;;;8.90;99.90;;;;;;5021698;28;20063;-86
2021/12/18 12:24:06;;;;;;;0.00;0.00;;;8.90;99.90;;;;;;5038616;28;20053;-86
2021/12/18 12:26:32;;;;;;;0.00;0.00;;;8.90;99.90;;;;;;5022928;28;20111;-85
2021/12/18 12:28:58;;;;;;;0.00;0.00;;;8.90;99.90;;;;;;5021757;28;20053;-86
2021/12/18 12:31:24;;;;;;;0.00;0.00;;;8.90;99.90;;;;;;5022821;28;20049;-86
2021/12/18 12:33:50;;;;;;;0.00;0.00;;;9.10;99.90;;;;;;5021419;28;20067;-86
2021/12/18 12:36:24;;;;;;;0.00;0.00;;;8.90;99.90;;;;;;5020803;28;20124;-84
2021/12/18 12:38:59;;;;;;;0.00;0.00;;;8.90;99.90;;;;;;5018780;28;20058;-85
2021/12/18 12:41:37;;;;;;;0.00;0.00;;;9.10;99.90;;;;;;5034827;28;20053;-85
2021/12/18 12:44:14;;;;;;;0.20;0.20;;;8.90;99.90;;;;;;5034969;28;20053;-85
2021/12/18 12:46:40;;;;;;;0.00;0.00;;;8.90;99.90;;;;;;5001759;28;20160;-84
2021/12/18 12:49:19;;;;;;;0.00;0.00;;;8.90;99.90;;;;;;5018344;28;20109;-85
2021/12/18 12:51:58;;;;;;;0.00;0.00;;;9.00;99.90;;;;;;5039383;28;20086;-85
2021/12/18 12:54:45;;;;;;;0.20;0.20;;;9.00;99.90;;;;;;5039501;28;20049;-85
2021/12/18 12:57:23;;;;;;;0.00;0.00;;;9.00;99.90;;;;;;5039507;28;20543;-85
2021/12/18 13:00:15;;;;;;;0.00;0.00;;;9.00;99.90;;;;;;5039337;28;20114;-85
2021/12/18 13:03:06;;;;;;;0.10;0.08;;;9.00;99.90;;;;;;5039532;28;20048;-85
2021/12/18 13:05:44;;;;;;;0.00;0.00;;;9.00;99.90;;;;;;5056232;28;20052;-85
2021/12/18 13:08:10;;;;;;;0.00;0.00;;;9.00;99.90;;;;;;5039595;28;20460;-85
2021/12/18 13:10:38;;;;;;;0.00;0.00;;;9.00;99.90;;;;;;5055212;28;20080;-85
2021/12/18 13:13:07;;;;;;;0.00;0.00;;;9.00;99.90;;;;;;5039532;28;20055;-84
2021/12/18 13:16:10;;;;;;;0.08;0.05;;;9.00;99.90;;;;;;5055954;28;20096;-84
2021/12/18 13:18:37;;;;;;;0.00;0.00;;;9.00;99.90;;;;;;5001127;28;20182;-84
2021/12/18 13:21:07;;;;;;;0.00;0.00;;;9.00;99.90;;;;;;5001932;28;20138;-85
2021/12/18 13:23:37;;;;;;;0.08;0.08;;;9.00;99.90;;;;;;5018205;28;20077;-85
2021/12/18 13:26:08;;;;;;;0.00;0.00;;;9.00;99.90;;;;;;5002516;28;20049;-84
2021/12/18 13:28:44;;;;;;;0.00;0.00;;;9.00;99.90;;;;;;5003161;28;20089;-84
2021/12/18 13:31:10;;;;;;;0.00;0.00;;;9.00;99.90;;;;;;5018630;28;20075;-86
2021/12/18 13:33:37;;;;;;;0.00;0.00;;;9.00;99.90;;;;;;5001808;28;20107;-86
2021/12/18 13:36:03;;;;;;;0.00;0.00;;;8.90;99.90;;;;;;5001654;28;20140;-86
2021/12/18 13:38:44;;;;;;;0.00;0.00;;;8.90;99.90;;;;;;5002010;28;20049;-85
2021/12/18 13:41:13;;;;;;;0.00;0.00;;;8.90;99.90;;;;;;5002008;28;20057;-83
2021/12/18 13:43:41;;;;;;;0.00;0.00;;;9.00;99.90;;;;;;5001336;28;20183;-84
2021/12/18 13:46:12;;;;;;;0.43;0.00;;;9.00;99.90;;;;;;5016752;28;20053;-83
2021/12/18 13:48:43;;;;;;;0.00;0.00;;;8.90;99.90;;;;;;5001962;28;20475;-83
2021/12/18 13:51:11;;;;;;;0.17;0.00;;;9.00;99.90;;;;;;5017975;28;20042;-85
2021/12/18 13:54:04;;;;;;;0.00;0.00;;;8.90;99.90;;;;;;5026385;28;20056;-84
2021/12/18 13:56:32;;;;;;;0.95;0.45;;;8.90;99.90;;;;;;5037554;28;20127;-84
2021/12/18 13:58:58;;;;;;;0.10;0.10;;;8.90;99.90;;;;;;5054922;28;20056;-84